Date,TemperatureHighF,TemperatureAvgF,TemperatureLowF,DewpointHighF,DewpointAvgF,DewpointLowF,HumidityHigh,HumidityAvg,HumidityLow,PressureMaxIn,PressureMinIn,WindSpeedMaxMPH,WindSpeedAvgMPH,GustSpeedMaxMPH,PrecipitationSumIn
2013-1-1,33,26,14,30,23,11,93,88,81,30.03,29.89,4,1,4,0.00
2013-1-2,24,16,7,15,10,3,87,78,61,30.10,30.00,4,0,4,0.00
2013-1-3,33,24,13,27,18,8,86,80,76,30.15,30.03,11,2,11,0.00
2013-1-4,32,25,19,24,19,15,85,79,69,30.19,30.13,10,2,10,0.00
2013-1-5,41,33,18,32,28,15,91,83,68,30.16,29.96,5,1,5,0.00
2013-1-6,36,32,26,32,28,22,87,84,79,30.17,29.85,14,3,14,0.00
2013-1-7,41,31,16,33,25,13,91,81,71,30.28,30.06,5,1,5,0.01
2013-1-8,47,33,22,36,28,19,91,80,64,30.12,30.03,3,0,3,0.06
2013-1-9,49,40,30,40,35,26,92,82,66,30.35,30.01,8,2,8,0.12
2013-1-10,30,29,28,27,26,25,89,89,88,30.35,30.33,0,0,0,0.00
2013-1-23,24,22,16,14,10,5,68,61,53,30.14,29.94,6,1,6,0.00
2013-1-24,26,20,13,13,10,7,81,65,51,30.44,30.01,8,2,8,0.00
2013-1-25,29,24,20,21,15,9,80,69,58,30.22,29.88,8,1,8,0.00
2013-1-26,32,21,16,21,15,11,83,77,63,30.26,29.95,3,0,3,0.04
2013-1-27,37,30,19,34,23,14,89,78,71,30.25,29.90,6,1,6,0.29
2013-1-28,53,48,37,51,46,34,95,93,89,29.94,29.83,8,1,8,0.15
2013-1-29,63,58,53,59,56,51,97,91,85,29.84,29.28,8,2,8,0.00
2013-1-30,64,46,28,60,43,24,95,90,83,29.49,29.13,20,5,20,0.95
2013-1-31,29,23,11,24,17,5,85,79,73,29.96,29.49,23,8,23,0.00
2013-2-1,19,12,6,11,5,0,81,74,65,30.24,29.96,14,4,14,0.00
2013-2-2,29,24,18,25,19,11,86,82,75,30.10,29.83,10,2,10,0.00
2013-2-3,26,19,12,21,14,7,84,82,77,29.94,29.80,13,3,13,0.00
2013-2-14,50,42,34,39,33,28,79,71,59,29.85,29.65,15,5,15,0.00
2013-2-15,38,31,21,31,25,16,86,79,66,30.02,29.83,10,1,10,0.02
2013-2-16,25,22,20,20,16,14,85,77,66,29.99,29.94,12,2,12,0.00
2013-2-17,36,23,10,20,12,5,83,66,43,30.07,29.97,7,1,7,0.01
2013-2-18,60,43,26,44,31,14,88,64,47,29.98,29.44,11,2,11,0.16
2013-2-19,46,27,22,43,20,13,91,77,67,29.98,29.43,21,10,21,0.09
2013-2-20,29,21,12,18,12,6,76,70,60,30.16,29.98,14,3,14,0.00
2013-2-21,34,26,17,26,20,11,88,78,68,30.19,29.85,11,3,11,0.01
2013-2-22,37,34,29,34,31,26,93,90,85,29.86,29.69,10,2,10,0.12
2013-2-23,39,30,24,29,24,20,86,79,65,29.85,29.77,12,3,12,0.07
2013-2-24,42,30,20,32,24,16,89,77,63,29.99,29.83,9,1,9,0.07
2013-2-25,47,34,24,33,27,20,87,74,57,30.01,29.72,9,3,9,0.04
2013-2-26,41,37,33,40,34,28,95,87,73,29.73,29.24,12,3,12,1.10
2013-2-27,41,35,32,40,33,30,95,91,88,29.55,29.33,10,3,10,0.03
2013-2-28,39,35,32,36,32,30,94,90,84,29.84,29.54,12,3,12,0.04
2013-3-1,35,33,31,32,29,26,92,87,83,29.93,29.80,4,1,4,0.01
2013-3-2,32,29,26,26,23,20,86,78,65,29.96,29.90,7,1,7,0.00
2013-3-3,35,29,21,24,21,16,85,72,57,29.97,29.91,8,2,8,0.00
2013-3-4,43,31,18,31,24,14,87,75,58,29.98,29.81,6,2,6,0.02
2013-3-5,38,35,29,33,31,27,93,86,77,29.83,29.51,8,2,8,0.13
2013-3-6,34,31,27,31,28,25,95,91,87,30.12,29.62,6,1,6,0.01
2013-3-7,41,33,28,34,28,23,93,82,68,30.24,30.11,5,1,5,0.21
2013-3-8,50,33,22,35,26,18,90,76,54,30.32,30.21,5,1,5,0.18
2013-3-9,54,44,32,40,34,25,80,68,57,30.21,29.81,7,1,7,0.02
2013-3-10,69,58,50,46,40,37,62,54,38,29.81,29.59,7,1,7,0.00
2013-3-11,59,46,34,48,41,30,90,83,56,29.72,29.47,12,4,13,0.12
2013-3-12,45,36,32,31,29,25,88,76,52,29.89,29.72,16,6,16,0.00
2013-3-13,34,30,26,29,23,19,87,74,65,30.17,29.87,13,5,13,0.02
2013-3-14,48,33,20,30,23,15,85,68,43,30.19,30.00,8,2,8,0.00
2013-3-15,54,40,28,42,34,25,89,78,62,30.01,29.60,5,1,5,0.00
2013-3-16,46,42,34,42,37,29,90,83,76,29.91,29.46,8,1,8,0.00
2013-3-17,41,35,31,31,28,25,83,75,66,30.01,29.81,11,3,11,0.00
2013-3-18,43,37,33,41,34,28,93,90,80,29.82,29.45,14,3,14,0.00
2013-3-19,43,34,26,35,21,17,87,61,38,29.96,29.70,21,7,21,0.00
2013-3-20,34,28,23,20,16,10,72,59,46,29.96,29.87,15,5,16,0.00
2013-3-21,40,28,17,19,14,10,74,57,42,29.90,29.84,11,3,11,0.00
2013-3-22,50,32,19,27,18,12,77,57,34,29.92,29.84,8,1,8,0.00
2013-3-23,51,40,32,29,24,19,63,53,40,29.93,29.77,6,1,6,0.00
2013-3-24,37,33,29,32,28,23,92,81,61,29.78,29.31,14,3,14,0.00
2013-3-25,38,32,28,33,29,26,93,89,76,29.84,29.36,7,2,7,0.00
2013-3-26,44,37,30,32,28,26,89,71,56,30.10,29.85,11,4,11,0.00
2013-3-27,45,35,26,31,25,20,87,69,45,30.18,30.10,11,2,11,0.00
2013-3-28,54,38,27,32,26,20,78,63,42,30.22,30.14,8,1,8,0.00
2013-3-29,60,42,28,38,30,23,83,65,39,30.17,30.06,6,1,6,0.00
2013-3-30,63,46,30,42,33,25,88,65,41,30.09,29.78,6,0,6,0.00
2013-3-31,66,51,45,45,41,34,88,69,42,29.78,29.62,17,3,17,0.00
2013-4-1,49,40,31,40,25,17,77,56,33,30.01,29.69,14,3,14,0.00
2013-4-2,51,35,26,23,19,15,73,53,28,30.14,30.00,12,2,12,0.00
2013-4-3,55,38,24,27,20,15,72,50,31,30.27,30.12,9,1,9,0.00
2013-4-4,66,44,32,30,23,18,58,45,21,30.18,29.85,8,1,8,0.00
2013-4-5,63,46,34,36,28,21,67,52,27,30.01,29.83,7,1,7,0.00
2013-4-6,75,55,39,43,33,25,60,45,32,30.00,29.67,8,2,8,0.00
2013-4-7,78,65,55,47,42,37,62,45,26,29.82,29.64,13,3,13,0.00
2013-4-8,75,64,54,59,52,38,76,65,53,29.83,29.69,7,2,7,0.00
2013-4-9,82,69,54,62,56,48,86,65,41,29.87,29.74,9,2,9,0.00
2013-4-10,83,69,56,66,61,53,92,76,56,29.78,29.62,10,3,10,0.00
2013-4-11,67,60,50,62,57,48,94,92,83,29.67,29.42,10,2,10,0.00
2013-4-12,50,42,38,48,35,32,94,77,63,29.77,29.46,13,4,13,0.00
2013-4-13,56,45,40,38,35,32,81,68,48,29.87,29.77,13,4,13,0.00
2013-4-14,82,58,38,53,43,32,81,60,32,29.88,29.67,7,1,7,0.00
2013-4-15,73,63,54,59,51,44,74,66,55,29.82,29.69,6,1,6,0.00
2013-4-16,62,53,49,54,49,46,93,86,71,30.04,29.73,8,1,9,0.00
2013-4-17,78,59,47,70,55,45,93,86,68,30.06,29.75,8,2,8,0.00
2013-4-18,78,65,56,67,60,54,94,85,60,29.75,29.43,12,2,12,0.00
2013-4-19,55,40,38,54,35,31,94,81,68,29.81,29.42,21,6,21,0.00
2013-4-20,55,40,33,34,29,25,88,67,41,30.25,29.81,16,3,16,0.00
2013-4-21,66,45,30,39,30,22,77,58,34,30.37,30.21,9,2,9,0.00
2013-4-22,84,56,35,45,36,27,77,50,25,30.22,29.95,5,1,5,0.00
2013-4-23,70,58,47,55,48,35,92,72,51,29.97,29.65,6,1,6,0.00
2013-4-24,57,48,40,55,44,32,92,87,72,30.07,29.64,7,2,7,0.00
2013-4-25,61,46,36,41,33,28,85,65,37,30.22,30.04,14,3,14,0.00
2013-4-26,68,51,34,45,37,28,83,61,40,30.29,30.17,5,1,5,0.01
2013-4-27,69,53,40,50,42,34,84,68,43,30.19,29.87,8,1,8,0.00
2013-4-28,59,56,54,57,54,49,93,91,84,29.87,29.70,6,1,6,0.00
2013-4-29,80,62,55,61,55,50,94,78,49,29.85,29.75,7,1,7,0.00
2013-4-30,94,68,50,66,56,46,90,67,39,29.90,29.77,5,1,5,0.00
2013-5-1,99,72,54,63,56,48,84,59,29,30.01,29.89,5,1,5,0.00
2013-5-2,88,72,60,60,55,52,74,57,37,30.04,29.91,7,1,7,0.00
2013-5-3,78,68,62,63,57,53,79,69,54,29.93,29.77,6,1,6,0.00
2013-5-4,72,63,55,52,50,48,82,64,48,29.88,29.81,7,1,7,0.00
2013-5-5,62,57,54,55,51,48,90,81,71,29.88,29.78,9,2,9,0.00
2013-5-6,72,61,51,60,53,46,86,75,61,29.84,29.76,9,2,9,0.00
2013-5-7,77,66,57,58,55,53,87,69,50,29.87,29.80,5,1,5,0.00
2013-5-8,85,68,56,61,56,52,89,67,40,29.89,29.81,6,1,6,0.00
2013-5-9,81,65,56,60,56,51,91,73,42,29.88,29.75,14,1,14,0.00
2013-5-10,69,61,49,63,58,45,94,89,77,29.79,29.67,5,1,5,0.00
2013-5-11,68,52,45,54,45,36,92,79,43,29.89,29.73,11,2,11,0.00
2013-5-12,58,48,39,39,33,29,82,59,37,29.98,29.88,10,2,10,0.00
2013-5-13,72,52,37,38,33,28,80,52,23,30.06,29.96,10,1,10,0.00
2013-5-14,92,67,51,64,48,37,61,51,39,29.96,29.67,9,2,9,0.01
2013-5-15,79,76,70,64,62,62,76,62,56,29.73,29.69,4,2,4,0.00
2013-5-16,89,76,68,68,63,58,84,65,42,29.84,29.71,5,1,5,0.00
2013-5-17,84,70,64,67,63,59,88,78,51,29.91,29.83,4,1,4,0.00
2013-5-18,85,70,63,70,63,60,92,81,58,29.94,29.83,6,1,6,0.00
2013-5-19,94,74,63,72,65,60,91,75,48,29.86,29.71,6,1,6,0.00
2013-5-20,85,77,71,71,68,65,88,74,59,29.82,29.69,7,1,7,0.01
2013-5-21,83,73,63,68,64,60,93,73,55,29.76,29.62,11,2,11,0.00
2013-5-22,75,68,64,65,62,58,88,81,67,29.67,29.58,7,1,7,0.00
2013-5-23,64,59,49,59,54,44,90,83,70,30.02,29.66,9,2,9,0.00
2013-5-24,74,59,45,47,42,40,87,56,34,30.22,30.12,6,2,6,0.00
2013-5-25,63,55,45,49,43,38,78,64,44,30.23,30.07,4,0,4,0.00
2013-5-26,68,59,52,57,48,41,80,67,54,30.16,30.02,4,1,4,0.08
2013-5-27,79,65,55,68,59,52,92,83,65,30.05,29.74,7,2,7,0.00
2013-5-28,83,72,62,69,65,60,95,81,61,29.83,29.75,10,1,10,0.00
2013-5-29,92,78,70,66,62,59,74,61,38,29.89,29.79,10,2,10,0.03
2013-5-30,86,78,70,69,66,62,78,66,55,29.93,29.80,8,2,8,0.00
2013-5-31,77,71,64,70,66,60,93,84,71,29.87,29.73,7,1,7,0.00
2013-6-1,75,69,63,68,64,61,94,86,76,29.76,29.63,8,1,8,0.00
2013-6-2,68,64,57,63,58,51,90,83,74,29.85,29.67,6,2,6,0.00
2013-6-3,73,56,46,55,47,42,86,73,47,29.96,29.85,5,1,5,0.00
2013-6-4,81,63,48,56,49,44,84,62,37,30.01,29.92,6,1,6,0.01
2013-6-5,84,70,56,61,55,47,73,59,45,29.94,29.73,6,1,6,0.00
2013-6-6,80,67,60,63,55,49,76,66,54,29.75,29.66,6,2,6,0.00
2013-6-7,72,65,59,60,57,54,82,74,63,29.75,29.69,5,1,5,0.00
2013-6-8,79,69,58,63,58,52,81,69,55,29.88,29.74,6,1,6,0.00
2013-6-9,81,72,63,65,61,58,89,70,50,29.89,29.69,5,1,5,0.00
2013-6-10,78,68,63,68,63,61,93,84,69,29.73,29.64,7,1,7,0.00
2013-6-11,83,73,63,68,63,59,88,73,56,29.84,29.73,8,1,8,0.00
2013-6-12,73,72,72,66,65,64,81,79,75,29.76,29.74,2,0,2,0.00
2013-6-14,79,74,65,61,58,56,76,60,49,29.93,29.88,5,1,5,0.00
2013-6-15,72,65,61,61,57,55,82,76,67,29.94,29.82,0,0,0,0.00
2013-6-16,82,71,66,70,64,61,85,78,66,29.86,29.77,9,1,9,0.00
2013-6-17,85,75,67,71,65,61,91,74,47,29.84,29.75,4,0,4,0.00
2013-6-18,85,74,65,67,62,58,84,68,50,29.87,29.75,7,2,7,0.00
2013-6-19,85,72,61,63,59,55,81,64,46,29.98,29.86,6,2,6,0.01
2013-6-20,90,74,63,66,60,55,82,63,42,30.05,29.97,4,0,4,0.00
2013-6-21,88,76,64,68,62,57,84,64,44,30.06,29.89,6,1,6,0.00
2013-6-22,88,78,72,73,67,64,99,71,52,30.00,29.90,7,1,7,0.00
2013-6-23,88,74,67,83,69,47,99,87,26,29.98,29.90,10,1,10,0.00
2013-6-24,91,84,78,85,74,54,99,73,33,29.95,29.87,4,1,4,0.00
2013-6-30,80,42,3,80,42,3,99,99,99,29.65,29.62,6,3,6,0.00
2013-7-2,-20,-30,-39,-21,-32,-43,95,87,80,29.84,29.82,1,1,1,0.00
2013-7-3,-39,-39,-39,-42,-42,-42,84,83,83,29.95,29.95,1,1,1,0.00
2013-7-4,13,-34,-39,12,-37,-45,99,84,72,30.01,29.94,3,0,3,0.00
2013-7-5,92,6,-39,91,-2,-62,99,80,1,29.99,29.92,2,0,2,0.00
2013-7-6,14,-22,-39,14,-23,-43,99,92,79,29.97,29.90,2,1,2,0.00
2013-7-7,35,-29,-39,34,-32,-44,99,84,77,29.95,29.91,2,0,2,0.00
2013-7-8,118,60,1,48,24,1,99,50,1,29.93,29.91,1,1,1,0.00
2013-7-10,126,50,-39,81,38,-45,99,81,1,29.84,29.75,8,3,8,0.00
2013-7-11,45,-5,-39,45,-15,-47,99,70,1,29.90,29.84,2,1,2,0.00
2013-7-13,138,138,138,62,62,62,1,1,1,29.98,29.97,2,2,2,0.00
2013-7-14,124,0,-39,75,-8,-46,99,80,1,30.07,30.00,2,1,2,0.00
2013-7-15,139,62,-39,96,45,-46,99,76,1,30.16,30.06,3,1,3,0.00
2013-7-16,140,44,-39,100,32,-73,99,81,1,30.21,30.14,2,0,2,0.00
2013-7-17,135,50,-39,94,42,-45,99,87,1,30.22,30.09,3,0,3,0.00
2013-7-18,136,54,-39,95,41,-46,99,79,1,30.09,29.90,1,0,1,0.00
2013-7-19,139,65,-39,100,51,-73,99,79,1,29.91,29.84,4,1,4,0.00
2013-7-20,133,38,-39,100,28,-45,99,82,1,29.79,29.73,8,1,8,0.00
2013-7-21,85,85,85,84,84,84,99,99,99,29.77,29.77,0,0,0,0.00
2013-7-23,78,70,49,78,70,49,99,99,99,29.70,29.67,5,3,5,0.00
2013-7-26,76,67,62,66,61,54,87,80,65,29.94,29.92,0,0,0,0.00